Flugplatz Uetersen/Heist

EDHE · Sleeswijk-Holstein, Duitsland

METAR historie EDHE · Uetersen/Heist Airport

Hieronder zie je METAR's van de afgelopen dagen. Kies een jaar om door oudere METAR's te bladeren, vanaf het jaar 2007.

6 december 2022

Tijd Code Weer Temp. Zicht Plafond Wind METAR/SPECI
03:50
I
4 °C 7 km 500 ft 330° 330° 7 kt METAR EDHI 060250Z AUTO 33007KT 7000 // OVC005/// 04/04 Q1016
03:20
I
4 °C 8 km 500 ft 330° 330° 5 kt METAR EDHI 060220Z AUTO 33005KT 8000 // OVC005/// 04/04 Q1017
02:50
I
4 °C 7 km 500 ft 330° 330° 4 kt METAR EDHI 060150Z AUTO 33004KT 7000 // BKN005/// BKN008/// OVC012/// 04/04 Q1017
02:20
L
4 °C 5 km 200 ft Var Var 2 kt METAR EDHI 060120Z AUTO VRB02KT 5000 // OVC002/// 04/04 Q1017
01:50
L
3 °C 3,9 km 200 ft 240° 240° 2 kt METAR EDHI 060050Z AUTO 24002KT 3900 // OVC002/// 03/03 Q1017
01:20
L
3 °C 4,7 km 200 ft 230° 230° 2 kt METAR EDHI 060020Z AUTO 23002KT 4700 // OVC002/// 03/03 Q1017
00:50
L
2 °C 4,6 km 200 ft Var Var 2 kt METAR EDHI 052350Z AUTO VRB02KT 4600 // OVC002/// 02/02 Q1017
00:20
L
2 °C 4,7 km 200 ft 210° 210° 4 kt METAR EDHI 052320Z AUTO 21004KT 4700 // BKN002/// OVC010/// 02/02 Q1017

5 december 2022

Tijd Code Weer Temp. Zicht Plafond Wind METAR/SPECI
23:50
L
2 °C 4,7 km 200 ft 220° 220° 4 kt METAR EDHI 052250Z AUTO 22004KT 4700 // BKN002/// OVC011/// 02/02 Q1017
23:20
L
2 °C 4,3 km 200 ft 200° 200° 3 kt METAR EDHI 052220Z AUTO 20003KT 160V230 4300 // BKN002/// OVC010/// 02/02 Q1018
22:50
L
2 °C 4,4 km 200 ft 230° 230° 3 kt METAR EDHI 052150Z AUTO 23003KT 4400 // BKN002/// OVC004/// 02/02 Q1018
22:20
I
2 °C 4,5 km 500 ft Var Var 2 kt METAR EDHI 052120Z AUTO VRB02KT 4500 // SCT002/// OVC005/// 02/02 Q1018
21:50
L
2 °C 4,3 km 400 ft 210° 210° 2 kt METAR EDHI 052050Z AUTO 21002KT 4300 // SCT002/// OVC004/// 02/02 Q1018
21:20
L
2 °C 4,8 km 300 ft 240° 240° 3 kt METAR EDHI 052020Z AUTO 24003KT 4800 // OVC003/// 02/02 Q1018
20:50
L
2 °C 5 km 300 ft 230° 230° 3 kt METAR EDHI 051950Z AUTO 23003KT 5000 // BKN003/// BKN011/// OVC014/// 02/02 Q1018
20:20
I
2 °C 4,7 km 1.700 ft 240° 240° 3 kt METAR EDHI 051920Z AUTO 24003KT 4700 // SCT003/// OVC017/// 02/02 Q1018
19:50
M
2 °C 6 km 2.200 ft 230° 230° 3 kt METAR EDHI 051850Z 23003KT 6000 -RA FEW005 BKN022 OVC034 02/02 Q1018
19:20
I
2 °C 6 km 500 ft 240° 240° 3 kt METAR EDHI 051820Z 24003KT 6000 -RA OVC005 02/02 Q1018
18:50
L
2 °C 6 km 400 ft 230° 230° 3 kt METAR EDHI 051750Z 23003KT 6000 -RA BKN004 OVC035 02/02 Q1018
18:20
M
2 °C 6 km 3.000 ft 240° 240° 2 kt METAR EDHI 051720Z 24002KT 6000 -RA SCT004 OVC030 02/02 Q1018
17:50
I
2 °C 6 km 700 ft Var Var 1 kt METAR EDHI 051650Z VRB01KT 6000 -RA SCT004 BKN007 OVC029 02/02 Q1018
17:20
I
2 °C 6 km 600 ft Var Var 1 kt METAR EDHI 051620Z VRB01KT 6000 -RA OVC006 02/02 Q1018
16:50
I
2 °C 7 km 700 ft Var Var 1 kt METAR EDHI 051550Z VRB01KT 7000 -RA BKN007 OVC030 02/02 Q1018
16:20
M
2 °C 6 km 1.000 ft Var Var 1 kt METAR EDHI 051520Z VRB01KT 6000 -RA SCT008 BKN010 OVC020 02/02 Q1018
15:50
I
3 °C 6 km 700 ft Var Var 2 kt METAR EDHI 051450Z VRB02KT 6000 -RA BKN007 OVC010 03/02 Q1018
15:20
I
3 °C 6 km 900 ft 090° 090° 3 kt METAR EDHI 051420Z 09003KT 040V160 6000 -RA SCT007 BKN009 OVC011 03/02 Q1018
14:50
M
3 °C 9 km 1.100 ft 070° 070° 3 kt METAR EDHI 051350Z 07003KT 040V100 9000 -RA SCT008 OVC011 03/02 Q1018
14:20
M
3 °C 9 km 1.000 ft 060° 060° 3 kt METAR EDHI 051320Z 06003KT 030V110 9000 -RA BKN010 03/02 Q1018
13:50
M
3 °C 9 km 1.200 ft Var Var 2 kt METAR EDHI 051250Z VRB02KT 9000 -RA SCT010 BKN012 03/02 Q1018
13:20
M
3 °C 8 km 2.400 ft 090° 090° 3 kt METAR EDHI 051220Z 09003KT 030V150 8000 SCT012 OVC024 03/02 Q1018
12:50
I
3 °C 7 km 900 ft 080° 080° 4 kt METAR EDHI 051150Z 08004KT 060V130 7000 -RA OVC009 03/02 Q1018
12:20
M
3 °C 8 km 1.000 ft 080° 080° 5 kt METAR EDHI 051120Z 08005KT 8000 -RA SCT008 OVC010 03/01 Q1019
11:50
M
3 °C 7 km 1.000 ft 080° 080° 5 kt METAR EDHI 051050Z 08005KT 7000 SCT008 OVC010 03/03 Q1019
11:20
I
3 °C 6 km 900 ft 090° 090° 4 kt METAR EDHI 051020Z 09004KT 360V150 6000 SCT007 OVC009 03/03 Q1019
10:50
I
3 °C 6 km 800 ft 090° 090° 5 kt METAR EDHI 050950Z 09005KT 060V120 6000 OVC008 03/03 Q1019
10:20
M
3 °C 7 km 1.000 ft 080° 080° 8 kt METAR EDHI 050920Z 08008KT 7000 BKN010 03/03 Q1019
09:50
M
4 °C 8 km 1.000 ft 070° 070° 8 kt METAR EDHI 050850Z 07008KT 8000 OVC010 04/03 Q1019
09:20
I
4 °C 4,7 km 800 ft 070° 070° 6 kt METAR EDHI 050820Z 07006KT 4700 BR OVC008 04/04 Q1019
08:50
I
4 °C 6 km 800 ft 070° 070° 8 kt METAR EDHI 050750Z 07008KT 040V100 6000 OVC008 04/04 Q1019
08:20
I
4 °C 5 km 800 ft 070° 070° 7 kt METAR EDHI 050720Z 07007KT 030V110 5000 BR OVC008 04/04 Q1019
07:50
I
4 °C 5 km 700 ft 070° 070° 9 kt METAR EDHI 050650Z 07009KT 5000 BR OVC007 04/04 Q1019
07:20
I
4 °C 6 km 700 ft 070° 070° 8 kt METAR EDHI 050620Z 07008KT 040V100 6000 OVC007 04/04 Q1018
06:50
I
4 °C 6 km 700 ft 060° 060° 8 kt METAR EDHI 050550Z 06008KT 6000 OVC007 04/04 Q1018
06:20
I
5 °C 4,9 km 800 ft 070° 070° 6 kt METAR EDHI 050520Z 07006KT 4900 BR OVC008 05/04 Q1019
05:50
I
5 °C 5 km 800 ft 070° 070° 6 kt METAR EDHI 050450Z AUTO 07006KT 030V100 5000 // OVC008/// 05/05 Q1019
05:20
I
5 °C 6 km 700 ft 070° 070° 7 kt METAR EDHI 050420Z AUTO 07007KT 6000 // OVC007/// 05/05 Q1019
04:50
I
5 °C 5 km 800 ft 050° 050° 9 kt METAR EDHI 050350Z AUTO 05009KT 5000 // OVC008/// 05/05 Q1018
04:20
I
5 °C 5 km 800 ft 060° 060° 8 kt METAR EDHI 050320Z AUTO 06008KT 5000 // OVC008/// 05/05 Q1018
03:50
M
5 °C 7 km 1.000 ft 060° 060° 8 kt METAR EDHI 050250Z AUTO 06008KT 7000 // OVC010/// 05/05 Q1019
03:20
I
5 °C 10 km+ 900 ft 070° 070° 8 kt METAR EDHI 050220Z AUTO 07008KT 040V100 9999 // BKN009/// BKN018/// OVC033/// 05/04 Q1019
02:50
I
4 °C 10 km+ 900 ft 060° 060° 8 kt METAR EDHI 050150Z AUTO 06008KT 030V090 9999 // OVC009/// 04/04 Q1019
02:20
I
4 °C 8 km 900 ft 060° 060° 7 kt METAR EDHI 050120Z AUTO 06007KT 8000 // OVC009/// 04/04 Q1019
01:50
I
4 °C 10 km+ 800 ft 060° 060° 9 kt METAR EDHI 050050Z AUTO 06009KT 9999 // BKN008/// OVC027/// 04/04 Q1019
01:20
I
4 °C 6 km 900 ft 060° 060° 8 kt METAR EDHI 050020Z AUTO 06008KT 030V090 6000 // OVC009/// 04/04 Q1019
00:50
M
4 °C 9 km 1.000 ft 060° 060° 8 kt METAR EDHI 042350Z AUTO 06008KT 9000 // OVC010/// 04/04 Q1020
00:20
M
4 °C 9 km 1.000 ft 070° 070° 9 kt METAR EDHI 042320Z AUTO 07009KT 030V090 9000 // OVC010/// 04/04 Q1020

4 december 2022

Tijd Code Weer Temp. Zicht Plafond Wind METAR/SPECI
23:50
M
4 °C 9 km 1.000 ft 060° 060° 9 kt METAR EDHI 042250Z AUTO 06009KT 030V090 9000 // OVC010/// 04/03 Q1020
23:20
M
4 °C 10 km+ 2.100 ft 050° 050° 9 kt METAR EDHI 042220Z AUTO 05009KT 9999 // SCT011/// BKN021/// OVC037/// 04/03 Q1020
22:50
M
4 °C 10 km+ 1.200 ft 060° 060° 8 kt METAR EDHI 042150Z AUTO 06008KT 9999 // OVC012/// 04/03 Q1020
22:20
M
4 °C 10 km+ 1.300 ft 070° 070° 10 kt METAR EDHI 042120Z AUTO 07010KT 9999 // BKN013/// OVC039/// 04/03 Q1020
21:50
M
4 °C 10 km+ 1.300 ft 070° 070° 8 kt METAR EDHI 042050Z AUTO 07008KT 9999 // OVC013/// 04/03 Q1020
21:20
M
4 °C 10 km+ 1.200 ft 070° 070° 9 kt METAR EDHI 042020Z AUTO 07009KT 040V100 9999 // BKN012/// OVC038/// 04/03 Q1020
20:50
M
4 °C 10 km+ 1.200 ft 070° 070° 8 kt METAR EDHI 041950Z AUTO 07008KT 9999 // BKN012/// BKN024/// OVC033/// 04/03 Q1021
20:20
M
4 °C 10 km+ 2.300 ft 060° 060° 9 kt METAR EDHI 041920Z AUTO 06009KT 9999 // FEW011/// BKN023/// OVC033/// 04/03 Q1021
19:50
M
4 °C 10 km+ 1.100 ft 070° 070° 8 kt METAR EDHI 041850Z AUTO 07008KT 040V100 9999 // BKN011/// BKN018/// OVC023/// 04/03 Q1021
19:20
M
4 °C 9 km 1.000 ft 070° 070° 9 kt SPECI EDHI 041820Z AUTO 07009KT 9000 // OVC010/// 04/03 Q1020
18:50
M
4 °C 9 km 1.000 ft 070° 070° 8 kt METAR EDHI 041750Z AUTO 07008KT 9000 // OVC010/// 04/03 Q1020
18:20
M
4 °C 9 km 1.100 ft 070° 070° 9 kt METAR EDHI 041720Z AUTO 07009KT 9000 // OVC011/// 04/03 Q1020
17:50
M
4 °C 8 km 1.100 ft 070° 070° 11 kt METAR EDHI 041650Z AUTO 07011KT 8000 // OVC011/// 04/03 Q1020
17:20
M
4 °C 8 km 1.100 ft 060° 060° 11 kt METAR EDHI 041620Z AUTO 06011KT 8000 // OVC011/// 04/03 Q1020
16:50
M
4 °C 8 km 1.100 ft 060° 060° 11 kt METAR EDHI 041550Z AUTO 06011KT 030V090 8000 // OVC011/// 04/03 Q1020
16:20
M
4 °C 9 km 1.200 ft 070° 070° 12 kt METAR EDHI 041520Z AUTO 07012KT 9000 // OVC012/// 04/02 Q1020
15:50
M
4 °C 10 km+ 1.300 ft 070° 070° 11 kt METAR EDHI 041450Z AUTO 07011KT 9999 // OVC013/// 04/02 Q1020
15:20
M
3 °C 10 km+ 1.400 ft 070° 070° 10 kt METAR EDHI 041420Z AUTO 07010KT 9999 // BKN014/// OVC034/// 03/02 Q1020
14:50
V
3 °C 10 km+ 3.400 ft 060° 060° 10 kt METAR EDHI 041350Z AUTO 06010KT 9999 // FEW015/// OVC034/// 03/01 Q1020
14:20
V
3 °C 10 km+ 3.300 ft 060° 060° 10 kt METAR EDHI 041320Z AUTO 06010KT 9999 // SCT014/// OVC033/// 03/01 Q1021
13:50
M
3 °C 9 km 1.500 ft 070° 070° 9 kt METAR EDHI 041250Z AUTO 07009KT 040V100 9000 // BKN015/// OVC031/// 03/01 Q1021
13:20
V
3 °C 9 km 3.000 ft 070° 070° 8 kt METAR EDHI 041220Z AUTO 07008KT 9000 // FEW017/// OVC030/// 03/00 Q1021
12:50
M
3 °C 9 km 2.900 ft 070° 070° 8 kt METAR EDHI 041150Z AUTO 07008KT 040V100 9000 // FEW017/// OVC029/// 03/01 Q1021
12:20
V
3 °C 9 km 3.000 ft 070° 070° 9 kt METAR EDHI 041120Z AUTO 07009KT 030V090 9000 // FEW016/// OVC030/// 03/00 Q1021
11:50
V
2 °C 9 km 3.100 ft 070° 070° 8 kt METAR EDHI 041050Z AUTO 07008KT 030V090 9000 // OVC031/// 02/00 Q1022
11:20
V
2 °C 8 km 3.100 ft 070° 070° 8 kt METAR EDHI 041020Z AUTO 07008KT 8000 // OVC031/// 02/00 Q1022
10:50
M
2 °C 7 km 3.300 ft 070° 070° 8 kt METAR EDHI 040950Z AUTO 07008KT 7000 // OVC033/// 02/M00 Q1022
10:20
M
2 °C 7 km 3.000 ft 070° 070° 8 kt METAR EDHI 040920Z AUTO 07008KT 040V100 7000 // OVC030/// 02/M00 Q1022
09:50
M
1 °C 7 km 2.800 ft 070° 070° 8 kt METAR EDHI 040850Z AUTO 07008KT 7000 // OVC028/// 01/M00 Q1022
09:20
M
1 °C 7 km 2.700 ft 070° 070° 9 kt METAR EDHI 040820Z AUTO 07009KT 7000 // OVC027/// 01/M01 Q1022
08:50
M
1 °C 7 km 2.500 ft 060° 060° 8 kt METAR EDHI 040750Z AUTO 06008KT 7000 // OVC025/// 01/M01 Q1022
08:20
M
1 °C 7 km 2.500 ft 060° 060° 8 kt METAR EDHI 040720Z AUTO 06008KT 030V090 7000 // OVC025/// 01/M01 Q1022
07:50
M
1 °C 7 km 2.700 ft 060° 060° 7 kt METAR EDHI 040650Z AUTO 06007KT 7000 // OVC027/// 01/M01 Q1022
07:20
M
1 °C 7 km 2.700 ft 060° 060° 7 kt METAR EDHI 040620Z AUTO 06007KT 7000 // OVC027/// 01/M01 Q1022
06:50
M
0 °C 7 km 2.800 ft 060° 060° 6 kt METAR EDHI 040550Z AUTO 06006KT 7000 // OVC028/// 00/M01 Q1022
06:20
M
0 °C 7 km 2.700 ft 060° 060° 6 kt METAR EDHI 040520Z AUTO 06006KT 7000 // OVC027/// 00/M01 Q1022
05:50
M
0 °C 8 km 2.500 ft 080° 080° 6 kt METAR EDHI 040450Z AUTO 08006KT 8000 // FEW013/// OVC025/// 00/M01 Q1022
05:20
M
0 °C 8 km 2.400 ft 070° 070° 5 kt METAR EDHI 040420Z AUTO 07005KT 040V100 8000 // FEW014/// OVC024/// 00/M01 Q1022
04:50
M
0 °C 8 km 2.400 ft 080° 080° 6 kt METAR EDHI 040350Z AUTO 08006KT 050V120 8000 // SCT013/// OVC024/// 00/M01 Q1022
04:20
M
0 °C 8 km 2.500 ft 090° 090° 7 kt METAR EDHI 040320Z AUTO 09007KT 040V120 8000 // FEW014/// OVC025/// 00/M02 Q1022
03:50
M
0 °C 8 km 2.500 ft 080° 080° 7 kt METAR EDHI 040250Z AUTO 08007KT 060V120 8000 // SCT014/// OVC025/// 00/M02 Q1022
03:20
M
0 °C 8 km 1.400 ft 080° 080° 9 kt METAR EDHI 040220Z AUTO 08009KT 8000 // OVC014/// 00/M02 Q1022
02:50
M
0 °C 8 km 1.500 ft 080° 080° 9 kt METAR EDHI 040150Z AUTO 08009KT 8000 // OVC015/// M00/M02 Q1022
02:20
M
0 °C 8 km 1.400 ft 080° 080° 10 kt METAR EDHI 040120Z AUTO 08010KT 040V100 8000 // BKN014/// OVC026/// M00/M02 Q1022
01:50
M
0 °C 7 km 2.400 ft 080° 080° 8 kt METAR EDHI 040050Z AUTO 08008KT 060V120 7000 // SCT014/// OVC024/// M00/M02 Q1022
01:20
M
0 °C 6 km 1.400 ft 080° 080° 8 kt METAR EDHI 040020Z AUTO 08008KT 060V120 6000 // BKN014/// OVC020/// M00/M03 Q1022
00:50
M
0 °C 7 km 1.500 ft 090° 090° 7 kt METAR EDHI 032350Z AUTO 09007KT 060V120 7000 // BKN015/// OVC027/// M00/M02 Q1022
00:20
M
0 °C 7 km 2.000 ft 080° 080° 8 kt METAR EDHI 032320Z AUTO 08008KT 7000 // SCT015/// OVC020/// M00/M03 Q1022

3 december 2022

Tijd Code Weer Temp. Zicht Plafond Wind METAR/SPECI
23:50
M
0 °C 7 km 2.200 ft 090° 090° 6 kt METAR EDHI 032250Z AUTO 09006KT 050V130 7000 // FEW017/// BKN022/// OVC035/// M00/M03 Q1022
23:20
M
-1 °C 8 km 1.700 ft 080° 080° 7 kt METAR EDHI 032220Z AUTO 08007KT 030V170 8000 // BKN017/// BKN040/// M01/M04 Q1022
22:50
M
-1 °C 7 km 1.600 ft 100° 100° 5 kt METAR EDHI 032150Z AUTO 10005KT 050V150 7000 // OVC016/// M01/M03 Q1022
22:20
M
0 °C 8 km 1.500 ft 100° 100° 5 kt METAR EDHI 032120Z AUTO 10005KT 050V200 8000 // OVC015/// M00/M03 Q1022
21:50
M
0 °C 8 km 1.500 ft 110° 110° 5 kt METAR EDHI 032050Z AUTO 11005KT 050V180 8000 // OVC015/// M00/M02 Q1022
21:20
M
0 °C 7 km 1.500 ft 110° 110° 5 kt METAR EDHI 032020Z AUTO 11005KT 040V180 7000 // BKN015/// OVC020/// 00/M02 Q1022
20:50
M
0 °C 7 km 1.600 ft 120° 120° 4 kt METAR EDHI 031950Z AUTO 12004KT 060V180 7000 // OVC016/// 00/M02 Q1022
20:20
M
0 °C 8 km 1.500 ft 100° 100° 5 kt METAR EDHI 031920Z AUTO 10005KT 040V180 8000 // OVC015/// 00/M02 Q1022
19:50
M
1 °C 10 km+ 1.600 ft Var Var 6 kt METAR EDHI 031850Z AUTO VRB06KT 9999 // OVC016/// 01/M02 Q1022
19:20
M
1 °C 10 km+ 2.200 ft 080° 080° 9 kt METAR EDHI 031820Z AUTO 08009KT 9999 // SCT019/// BKN022/// OVC100/// 01/M02 Q1022
18:50
V
1 °C 10 km+ 10.000 ft 080° 080° 9 kt METAR EDHI 031750Z AUTO 08009KT 040V120 9999 // SCT019/// OVC100/// 01/M02 Q1022
18:20
V
1 °C 10 km+ 10.000 ft 080° 080° 8 kt METAR EDHI 031720Z AUTO 08008KT 9999 // SCT019/// OVC100/// 01/M02 Q1022
17:50
M
1 °C 10 km+ 1.800 ft 070° 070° 6 kt METAR EDHI 031650Z AUTO 07006KT 040V100 9999 // BKN018/// OVC100/// 01/M01 Q1022
17:20
M
1 °C 10 km+ 2.000 ft 080° 080° 9 kt METAR EDHI 031620Z AUTO 08009KT 040V100 9999 // OVC020/// 01/M01 Q1022
16:50
M
1 °C 10 km+ 2.000 ft 080° 080° 9 kt METAR EDHI 031550Z AUTO 08009KT 050V130 9999 // BKN020/// OVC110/// 01/M02 Q1023
16:20
M
1 °C 10 km+ 1.900 ft 080° 080° 9 kt METAR EDHI 031520Z AUTO 08009KT 9999 // BKN019/// OVC100/// 01/M01 Q1023
15:50
V
2 °C 10 km+ 10.000 ft 080° 080° 9 kt METAR EDHI 031450Z AUTO 08009KT 9999 // SCT020/// OVC100/// 02/M02 Q1023
15:20
M
2 °C 10 km+ 2.100 ft 070° 070° 5 kt METAR EDHI 031420Z AUTO 07005KT 040V100 9999 // BKN021/// BKN024/// OVC110/// 02/M01 Q1023
14:50
V
2 °C 10 km+ 3.300 ft 080° 080° 6 kt METAR EDHI 031350Z AUTO 08006KT 050V130 9999 // SCT020/// BKN033/// OVC110/// 02/M01 Q1023
14:20
V
2 °C 10 km+ 3.200 ft 070° 070° 10 kt METAR EDHI 031320Z AUTO 07010KT 040V100 9999 // SCT019/// OVC032/// 02/M01 Q1023
13:50
M
2 °C 10 km+ 2.800 ft 080° 080° 9 kt METAR EDHI 031250Z AUTO 08009KT 050V110 9999 // FEW019/// OVC028/// 02/M01 Q1023
13:20
M
2 °C 10 km+ 2.600 ft 080° 080° 8 kt METAR EDHI 031220Z AUTO 08008KT 030V110 9999 // FEW019/// BKN026/// OVC030/// 02/M01 Q1024
12:50
V
2 °C 10 km+ 3.200 ft 090° 090° 7 kt METAR EDHI 031150Z AUTO 09007KT 060V130 9999 // SCT019/// BKN032/// OVC044/// 02/M01 Q1024
12:20
V
2 °C 10 km+ 4.400 ft 090° 090° 8 kt METAR EDHI 031120Z AUTO 09008KT 050V130 9999 // SCT019/// OVC044/// 02/M01 Q1024
11:50
V
2 °C 10 km+ 4.400 ft 080° 080° 6 kt METAR EDHI 031050Z AUTO 08006KT 050V120 9999 // FEW019/// OVC044/// 02/M01 Q1024
11:20
V
2 °C 10 km+ 4.400 ft 090° 090° 7 kt METAR EDHI 031020Z AUTO 09007KT 050V150 9999 // FEW019/// OVC044/// 02/M01 Q1025
10:50
V
1 °C 10 km+ 4.700 ft 080° 080° 7 kt METAR EDHI 030950Z AUTO 08007KT 050V110 9999 // SCT017/// OVC047/// 01/M01 Q1025

Wij en derden volgen je internetgedrag op onze website met cookies. Als je doorgaat, gaan we ervan uit dat je akkoord gaat met onze cookiebeleid.